createdAt,value
2018-05-02T00:00:57.724Z,73.90
2018-05-02T00:03:26.835Z,73.40
2018-05-02T00:05:54.267Z,73.30
2018-05-02T00:08:22.506Z,73.30
2018-05-02T00:10:49.928Z,73.30
2018-05-02T00:13:17.384Z,73.80
2018-05-02T00:15:44.820Z,73.50
2018-05-02T00:18:13.026Z,73.50
2018-05-02T00:20:40.479Z,73.50
2018-05-02T00:23:07.917Z,74.00
2018-05-02T00:25:36.152Z,74.30
2018-05-02T00:28:03.597Z,74.30
2018-05-02T00:30:31.036Z,74.20
2018-05-02T00:32:58.476Z,74.20
2018-05-02T00:35:26.856Z,73.90
2018-05-02T00:37:54.295Z,73.70
2018-05-02T00:40:23.004Z,73.60
2018-05-02T00:42:50.476Z,73.60
2018-05-02T00:45:17.908Z,73.60
2018-05-02T00:47:45.344Z,74.10
2018-05-02T00:50:13.544Z,74.30
2018-05-02T00:52:40.979Z,74.30
2018-05-02T00:55:09.175Z,75.30
2018-05-02T00:57:36.616Z,75.20
2018-05-02T01:00:04.816Z,75.50
2018-05-02T01:02:32.260Z,75.40
2018-05-02T01:04:59.679Z,75.80
2018-05-02T01:07:27.120Z,75.40
2018-05-02T01:09:54.544Z,76.10
2018-05-02T01:12:21.980Z,76.50
2018-05-02T01:14:50.188Z,75.90
2018-05-02T01:17:17.607Z,75.80
2018-05-02T01:19:45.799Z,76.70
2018-05-02T01:22:13.239Z,76.70
2018-05-02T01:24:41.431Z,77.20
2018-05-02T01:27:09.048Z,77.10
2018-05-02T01:29:36.467Z,78.20
2018-05-02T01:32:03.886Z,77.30
2018-05-02T01:34:32.700Z,78.30
2018-05-02T01:37:00.124Z,78.30
2018-05-02T01:39:27.561Z,78.30
2018-05-02T01:41:54.984Z,78.80
2018-05-02T01:44:22.449Z,78.80
2018-05-02T01:46:49.885Z,78.60
2018-05-02T01:49:24.028Z,78.80
2018-05-02T01:51:51.450Z,78.40
2018-05-02T01:54:18.905Z,78.80
2018-05-02T01:56:46.337Z,79.00
2018-05-02T01:59:13.944Z,79.00
2018-05-02T02:01:41.473Z,78.90
2018-05-02T02:04:09.682Z,77.80
2018-05-02T02:06:37.142Z,77.70
2018-05-02T02:09:05.255Z,77.60
2018-05-02T02:11:32.695Z,77.10
2018-05-02T02:14:00.134Z,77.30
2018-05-02T02:16:27.555Z,77.20
2018-05-02T02:18:55.767Z,77.40
2018-05-02T02:21:23.214Z,77.30
2018-05-02T02:23:50.647Z,77.70
2018-05-02T02:26:18.098Z,77.20
2018-05-02T02:28:46.292Z,77.50
2018-05-02T02:31:13.724Z,77.40
2018-05-02T02:33:41.928Z,77.30
2018-05-02T02:36:09.356Z,77.30
2018-05-02T02:38:37.615Z,77.20
2018-05-02T02:41:05.031Z,77.20
2018-05-02T02:43:32.467Z,77.40
2018-05-02T02:45:59.899Z,77.80
2018-05-02T02:48:28.103Z,77.30
2018-05-02T02:50:55.544Z,77.30
2018-05-02T02:53:23.728Z,77.60
2018-05-02T02:55:51.175Z,77.50
2018-05-02T02:58:19.372Z,77.60
2018-05-02T03:00:46.811Z,77.60
2018-05-02T03:03:15.015Z,77.90
2018-05-02T03:05:42.448Z,77.90
2018-05-02T03:08:09.892Z,78.00
2018-05-02T03:10:38.103Z,78.10
2018-05-02T03:13:05.520Z,78.10
2018-05-02T03:15:33.736Z,78.40
2018-05-02T03:18:01.167Z,78.30
2018-05-02T03:20:29.369Z,79.10
2018-05-02T03:22:56.799Z,78.30
2018-05-02T03:25:25.001Z,78.30
2018-05-02T03:27:52.439Z,78.30
2018-05-02T03:30:20.615Z,79.00
2018-05-02T03:32:48.043Z,79.00
2018-05-02T03:35:15.496Z,79.00
2018-05-02T03:37:42.935Z,79.70
2018-05-02T03:40:10.987Z,80.10
2018-05-02T03:42:38.480Z,80.70
2018-05-02T03:45:05.920Z,81.40
2018-05-02T03:47:33.349Z,82.30
2018-05-02T03:50:00.786Z,82.80
2018-05-02T03:52:28.211Z,84.20
2018-05-02T03:54:55.655Z,84.50
2018-05-02T03:57:23.088Z,84.80
2018-05-02T04:00:02.152Z,84.90
2018-05-02T04:02:41.256Z,85.80
2018-05-02T04:05:20.517Z,86.60
2018-05-02T04:07:48.756Z,88.30
2018-05-02T04:10:16.190Z,86.90
2018-05-02T04:12:43.623Z,86.60
2018-05-02T04:15:11.054Z,87.20
2018-05-02T04:17:38.483Z,86.80
2018-05-02T04:20:05.922Z,86.20
2018-05-02T04:22:33.342Z,85.90
2018-05-02T04:25:00.772Z,85.70
2018-05-02T04:27:28.205Z,85.40
2018-05-02T04:29:55.644Z,85.60
2018-05-02T04:32:23.076Z,85.50
2018-05-02T04:34:50.509Z,85.50
2018-05-02T04:37:17.933Z,85.40
2018-05-02T04:39:45.363Z,85.20
2018-05-02T04:42:13.568Z,85.20
2018-05-02T04:44:40.991Z,85.20
2018-05-02T04:47:09.181Z,85.30
2018-05-02T04:49:36.618Z,85.30
2018-05-02T04:52:04.812Z,84.70
2018-05-02T04:54:32.241Z,84.70
2018-05-02T04:57:00.452Z,84.40
2018-05-02T04:59:27.966Z,84.40
2018-05-02T05:01:56.090Z,83.50
2018-05-02T05:04:23.583Z,83.50
2018-05-02T05:06:51.017Z,83.40
2018-05-02T05:09:18.463Z,83.30
2018-05-02T05:11:45.882Z,83.30
2018-05-02T05:14:14.080Z,83.10
2018-05-02T05:16:41.507Z,82.90
2018-05-02T05:19:08.931Z,82.40
2018-05-02T05:21:36.365Z,82.70
2018-05-02T05:24:03.788Z,82.20
2018-05-02T05:26:32.007Z,81.20
2018-05-02T05:28:59.422Z,81.20
2018-05-02T05:31:28.228Z,81.10
2018-05-02T05:33:55.719Z,81.00
2018-05-02T05:36:23.142Z,80.30
2018-05-02T05:38:50.570Z,79.60
2018-05-02T05:41:18.003Z,78.50
2018-05-02T05:43:45.436Z,78.40
2018-05-02T05:46:12.871Z,79.00
2018-05-02T05:48:40.299Z,78.90
2018-05-02T05:51:07.732Z,78.30
2018-05-02T05:53:35.168Z,77.10
2018-05-02T05:56:02.600Z,77.20
2018-05-02T05:58:30.028Z,77.40
2018-05-02T06:00:57.473Z,76.50
2018-05-02T06:03:24.899Z,76.20
2018-05-02T06:05:52.345Z,76.00
2018-05-02T06:08:19.768Z,75.60
2018-05-02T06:10:47.981Z,75.40
2018-05-02T06:13:15.431Z,75.40
2018-05-02T06:15:42.866Z,75.00
2018-05-02T06:18:11.052Z,73.70
2018-05-02T06:20:38.487Z,73.60
2018-05-02T06:23:06.680Z,72.00
2018-05-02T06:25:34.121Z,72.00
2018-05-02T06:28:01.607Z,69.40
2018-05-02T06:30:29.029Z,66.60
2018-05-02T06:32:56.486Z,60.10
2018-05-02T06:35:23.916Z,57.00
2018-05-02T06:37:51.445Z,52.40
2018-05-02T06:40:18.805Z,51.40
2018-05-02T06:42:46.246Z,47.90
2018-05-02T06:45:13.668Z,47.50
2018-05-02T06:47:41.110Z,46.10
2018-05-02T06:50:08.556Z,46.30
2018-05-02T06:52:35.988Z,46.50
2018-05-02T06:55:03.417Z,46.00
2018-05-02T06:57:31.624Z,45.40
2018-05-02T06:59:59.068Z,45.30
2018-05-02T07:02:26.496Z,43.30
2018-05-02T07:04:54.728Z,42.10
2018-05-02T07:07:22.196Z,41.90
2018-05-02T07:09:49.616Z,42.00
2018-05-02T07:12:17.056Z,42.60
2018-05-02T07:14:45.245Z,43.80
2018-05-02T07:17:12.688Z,43.70
2018-05-02T07:19:40.871Z,48.20
2018-05-02T07:22:08.308Z,48.20
2018-05-02T07:24:36.503Z,48.80
2018-05-02T07:27:03.930Z,48.80
2018-05-02T07:29:31.364Z,49.10
2018-05-02T07:31:58.799Z,50.60
2018-05-02T07:34:26.280Z,50.50
2018-05-02T07:36:53.728Z,50.40
2018-05-02T07:39:21.189Z,51.30
2018-05-02T07:41:48.633Z,51.00
2018-05-02T07:44:16.066Z,50.00
2018-05-02T07:46:43.564Z,50.10
2018-05-02T07:49:11.008Z,49.30
2018-05-02T07:51:38.439Z,46.50
2018-05-02T07:54:05.928Z,44.80
2018-05-02T07:56:33.390Z,42.30
2018-05-02T07:59:00.792Z,41.70
2018-05-02T08:01:28.995Z,40.10
2018-05-02T08:03:56.432Z,40.10
2018-05-02T08:06:24.648Z,37.60
2018-05-02T08:08:52.080Z,37.50
2018-05-02T08:11:19.518Z,37.80
2018-05-02T08:13:47.726Z,37.10
2018-05-02T08:16:15.153Z,37.10
2018-05-02T08:18:43.343Z,37.50
2018-05-02T08:21:10.786Z,37.50
2018-05-02T08:23:38.971Z,39.40
2018-05-02T08:26:06.398Z,39.40
2018-05-02T08:28:34.788Z,40.40
2018-05-02T08:31:02.985Z,43.10
2018-05-02T08:33:31.598Z,42.90
2018-05-02T08:35:59.027Z,43.50
2018-05-02T08:38:26.459Z,43.80
2018-05-02T08:40:54.691Z,44.20
2018-05-02T08:43:22.143Z,44.00
2018-05-02T08:45:49.568Z,44.60
2018-05-02T08:48:16.996Z,42.60
2018-05-02T08:50:44.429Z,42.00
2018-05-02T08:53:11.883Z,42.00
2018-05-02T08:55:39.324Z,42.20
2018-05-02T08:58:06.751Z,41.30
2018-05-02T09:00:34.949Z,39.80
2018-05-02T09:03:02.393Z,39.70
2018-05-02T09:05:29.827Z,38.70
2018-05-02T09:07:58.036Z,36.40
2018-05-02T09:10:25.468Z,36.30
2018-05-02T09:12:53.695Z,34.60
2018-05-02T09:15:21.148Z,34.50
2018-05-02T09:17:48.604Z,32.90
2018-05-02T09:20:16.072Z,33.10
2018-05-02T09:22:43.505Z,31.00
2018-05-02T09:25:10.940Z,31.00
2018-05-02T09:27:38.768Z,30.20
2018-05-02T09:30:06.208Z,29.90
2018-05-02T09:32:33.645Z,30.10
2018-05-02T09:35:01.071Z,27.80
2018-05-02T09:37:28.511Z,27.50
2018-05-02T09:39:56.703Z,26.50
2018-05-02T09:42:24.908Z,26.00
2018-05-02T09:44:52.341Z,25.90
2018-05-02T09:47:20.545Z,27.20
2018-05-02T09:49:48.979Z,27.10
2018-05-02T09:52:17.920Z,26.70
2018-05-02T09:54:45.355Z,26.70
2018-05-02T09:57:12.779Z,28.00
2018-05-02T09:59:40.207Z,28.30
2018-05-02T10:02:07.652Z,27.10
2018-05-02T10:04:35.200Z,26.00
2018-05-02T10:07:02.516Z,25.10
2018-05-02T10:09:30.344Z,25.60
2018-05-02T10:11:57.781Z,25.40
2018-05-02T10:14:25.233Z,26.20
2018-05-02T10:16:52.649Z,24.60
2018-05-02T10:19:20.851Z,25.10
2018-05-02T10:21:48.280Z,24.60
2018-05-02T10:24:16.482Z,26.50
2018-05-02T10:26:43.911Z,26.50
2018-05-02T10:29:12.112Z,25.60
2018-05-02T10:31:39.571Z,25.60
2018-05-02T10:34:07.013Z,25.20
2018-05-02T10:36:35.199Z,23.90
2018-05-02T10:39:04.139Z,24.50
2018-05-02T10:41:31.570Z,23.70
2018-05-02T10:43:59.012Z,24.20
2018-05-02T10:46:26.632Z,24.20
2018-05-02T10:48:54.066Z,24.60
2018-05-02T10:51:22.634Z,24.20
2018-05-02T10:53:51.216Z,23.50
2018-05-02T10:56:18.641Z,23.50
2018-05-02T10:58:46.835Z,24.10
2018-05-02T11:01:15.038Z,24.10
2018-05-02T11:03:43.232Z,23.90
2018-05-02T11:06:10.691Z,23.90
2018-05-02T11:08:38.128Z,25.00
2018-05-02T11:13:34.377Z,23.00
2018-05-02T11:16:01.829Z,23.20
2018-05-02T11:18:29.257Z,22.70
2018-05-02T11:20:57.448Z,24.10
2018-05-02T11:23:24.891Z,24.10
2018-05-02T11:25:52.328Z,24.40
2018-05-02T11:28:20.605Z,23.90
2018-05-02T11:30:48.040Z,23.90
2018-05-02T11:33:15.480Z,23.60
2018-05-02T11:35:42.923Z,24.00
2018-05-02T11:38:10.358Z,23.50
2018-05-02T11:40:37.800Z,23.60
2018-05-02T11:43:06.001Z,22.00
2018-05-02T11:45:33.446Z,22.00
2018-05-02T11:48:00.884Z,23.60
2018-05-02T11:50:29.755Z,22.10
2018-05-02T11:52:57.179Z,22.10
2018-05-02T11:55:25.387Z,22.50
2018-05-02T11:57:52.928Z,22.40
2018-05-02T12:00:20.288Z,21.80
2018-05-02T12:02:48.484Z,22.50
2018-05-02T12:05:15.906Z,21.40
2018-05-02T12:07:43.339Z,21.90
2018-05-02T12:10:10.773Z,22.00
2018-05-02T12:12:38.984Z,21.80
2018-05-02T12:15:06.415Z,21.80
2018-05-02T12:17:33.840Z,23.60
2018-05-02T12:20:01.290Z,23.50
2018-05-02T12:22:28.718Z,24.00
2018-05-02T12:24:56.152Z,22.90
2018-05-02T12:27:23.584Z,23.30
2018-05-02T12:29:51.783Z,23.70
2018-05-02T12:32:19.213Z,23.60
2018-05-02T12:34:47.429Z,24.50
2018-05-02T12:37:14.851Z,24.40
2018-05-02T12:39:43.054Z,24.10
2018-05-02T12:42:10.488Z,24.00
2018-05-02T12:44:38.736Z,22.90
2018-05-02T12:47:06.119Z,23.70
2018-05-02T12:49:34.361Z,24.30
2018-05-02T12:52:01.805Z,24.80
2018-05-02T12:54:29.264Z,25.20
2018-05-02T12:56:56.725Z,24.90
2018-05-02T12:59:24.168Z,24.70
2018-05-02T13:01:51.603Z,25.20
2018-05-02T13:04:19.039Z,24.90
2018-05-02T13:06:47.244Z,25.00
2018-05-02T13:09:14.680Z,25.00
2018-05-02T13:11:42.110Z,24.70
2018-05-02T13:14:09.536Z,24.50
2018-05-02T13:16:36.979Z,25.40
2018-05-02T13:19:04.407Z,25.90
2018-05-02T13:21:31.860Z,25.70
2018-05-02T13:24:00.058Z,26.40
2018-05-02T13:26:28.404Z,26.30
2018-05-02T13:28:56.600Z,25.50
2018-05-02T13:31:24.032Z,25.50
2018-05-02T13:33:52.251Z,26.00
2018-05-02T13:36:19.671Z,26.00
2018-05-02T13:38:47.871Z,26.10
2018-05-02T13:41:15.324Z,25.60
2018-05-02T13:43:42.738Z,26.20
2018-05-02T13:46:10.196Z,26.60
2018-05-02T13:48:37.622Z,27.80
2018-05-02T13:51:05.050Z,28.90
2018-05-02T13:53:32.878Z,27.20
2018-05-02T13:56:00.319Z,28.10
2018-05-02T13:58:30.001Z,27.50
2018-05-02T14:00:57.459Z,26.70
2018-05-02T14:03:24.871Z,27.40
2018-05-02T14:05:52.298Z,27.70
2018-05-02T14:08:19.786Z,27.90
2018-05-02T14:10:47.176Z,28.40
2018-05-02T14:13:14.609Z,28.50
2018-05-02T14:15:42.804Z,28.80
2018-05-02T14:18:10.256Z,28.80
2018-05-02T14:20:38.436Z,28.90
2018-05-02T14:23:05.855Z,28.90
2018-05-02T14:25:33.381Z,28.70
2018-05-02T14:28:02.183Z,27.60
2018-05-02T14:30:29.716Z,27.60
2018-05-02T14:32:57.540Z,28.60
2018-05-02T14:35:25.056Z,29.00
2018-05-02T14:37:52.491Z,28.80
2018-05-02T14:40:19.976Z,29.20
2018-05-02T14:42:47.412Z,29.00
2018-05-02T14:45:14.880Z,29.60
2018-05-02T14:47:42.291Z,29.00
2018-05-02T14:50:10.175Z,28.80
2018-05-02T14:52:38.404Z,28.30
2018-05-02T14:55:06.340Z,28.60
2018-05-02T14:57:33.763Z,29.20
2018-05-02T15:00:01.956Z,28.90
2018-05-02T15:02:30.535Z,29.30
2018-05-02T15:04:57.959Z,30.00
2018-05-02T15:07:26.158Z,29.40
2018-05-02T15:09:54.770Z,29.30
2018-05-02T15:12:22.186Z,29.90
2018-05-02T15:14:50.387Z,29.50
2018-05-02T15:17:17.823Z,29.40
2018-05-02T15:19:46.777Z,29.80
2018-05-02T15:22:14.220Z,29.90
2018-05-02T15:24:41.725Z,30.20
2018-05-02T15:27:09.100Z,30.70
2018-05-02T15:29:37.287Z,30.90
2018-05-02T15:32:04.723Z,30.90
2018-05-02T15:34:32.932Z,31.00
2018-05-02T15:37:00.370Z,31.00
2018-05-02T15:39:27.809Z,31.90
2018-05-02T15:41:55.235Z,31.30
2018-05-02T15:44:22.739Z,31.40
2018-05-02T15:46:50.941Z,31.70
2018-05-02T15:49:18.442Z,31.70
2018-05-02T15:51:46.568Z,32.60
2018-05-02T15:54:14.010Z,32.60
2018-05-02T15:56:42.962Z,32.10
2018-05-02T15:59:10.433Z,31.90
2018-05-02T16:04:06.781Z,32.80
2018-05-02T16:06:34.475Z,32.30
2018-05-02T16:09:01.916Z,32.80
2018-05-02T16:11:30.057Z,33.10
2018-05-02T16:13:57.493Z,33.30
2018-05-02T16:16:24.957Z,33.80
2018-05-02T16:18:52.371Z,33.90
2018-05-02T16:21:19.804Z,33.80
2018-05-02T16:23:47.311Z,33.50
2018-05-02T16:26:14.726Z,33.50
2018-05-02T16:28:42.920Z,33.80
2018-05-02T16:31:10.361Z,33.80
2018-05-02T16:33:37.783Z,33.40
2018-05-02T16:36:05.221Z,34.00
2018-05-02T16:38:32.656Z,34.00
2018-05-02T16:41:00.100Z,33.40
2018-05-02T16:43:28.303Z,33.60
2018-05-02T16:45:55.723Z,33.60
2018-05-02T16:48:23.932Z,33.50
2018-05-02T16:50:52.955Z,33.60
2018-05-02T16:53:21.143Z,33.10
2018-05-02T17:03:15.715Z,34.30
2018-05-02T17:05:43.903Z,35.60
2018-05-02T17:08:12.109Z,34.40
2018-05-02T17:10:39.929Z,34.30
2018-05-02T17:13:08.119Z,34.40
2018-05-02T17:15:35.566Z,34.80
2018-05-02T17:18:02.983Z,35.20
2018-05-02T17:20:31.201Z,35.40
2018-05-02T17:22:59.037Z,35.30
2018-05-02T17:25:26.468Z,35.70
2018-05-02T17:27:53.892Z,36.10
2018-05-02T17:30:22.828Z,36.00
2018-05-02T17:32:51.069Z,36.00
2018-05-02T17:35:20.521Z,36.50
2018-05-02T17:37:48.728Z,37.00
2018-05-02T17:40:16.556Z,37.30
2018-05-02T17:45:13.160Z,37.00
2018-05-02T17:50:09.380Z,36.60
2018-05-02T17:52:37.208Z,37.30
2018-05-02T17:55:05.032Z,37.20
2018-05-02T17:57:32.476Z,37.00
2018-05-02T18:00:00.684Z,38.10
2018-05-02T18:02:28.496Z,37.90
2018-05-02T18:04:57.063Z,38.00
2018-05-02T18:07:24.486Z,38.30
2018-05-02T18:09:52.315Z,38.20
2018-05-02T18:12:20.516Z,39.00
2018-05-02T18:17:17.520Z,39.20
2018-05-02T18:19:46.320Z,39.30
2018-05-02T18:22:14.905Z,39.00
2018-05-02T18:27:11.176Z,39.00
2018-05-02T18:32:08.175Z,39.60
2018-05-02T18:37:05.921Z,39.60
2018-05-02T18:42:02.905Z,40.00
2018-05-02T18:44:30.394Z,39.70
2018-05-02T18:46:58.580Z,40.10
2018-05-02T18:49:26.784Z,43.20
2018-05-02T18:54:23.844Z,42.00
2018-05-02T18:59:20.564Z,41.30
2018-05-02T19:01:47.986Z,42.30
2018-05-02T19:04:16.191Z,41.90
2018-05-02T19:06:43.623Z,41.90
2018-05-02T19:09:11.840Z,42.10
2018-05-02T19:11:39.268Z,42.10
2018-05-02T19:14:06.706Z,42.30
2018-05-02T19:19:37.319Z,43.20
2018-05-02T19:22:04.751Z,44.30
2018-05-02T19:24:38.535Z,42.80
2018-05-02T19:27:05.962Z,42.80
2018-05-02T19:29:34.267Z,42.90
2018-05-02T19:32:07.246Z,42.80
2018-05-02T19:34:34.679Z,44.50
2018-05-02T19:37:02.887Z,43.50
2018-05-02T19:39:45.369Z,43.50
2018-05-02T19:42:19.268Z,45.50
2018-05-02T19:44:47.471Z,44.30
2018-05-02T19:47:15.024Z,44.30
2018-05-02T19:49:42.480Z,44.80
2018-05-02T19:52:27.733Z,44.40
2018-05-02T19:54:55.931Z,45.10
2018-05-02T19:57:23.369Z,45.10
2018-05-02T19:59:51.597Z,45.60
2018-05-02T20:02:24.623Z,45.00
2018-05-02T20:04:52.134Z,45.50
2018-05-02T20:07:35.362Z,44.90
2018-05-02T20:10:09.383Z,44.70
2018-05-02T20:12:43.135Z,45.20
2018-05-02T20:17:40.162Z,44.90
2018-05-02T20:20:08.364Z,45.20
2018-05-02T20:22:36.762Z,45.50
2018-05-02T20:35:00.451Z,45.90
2018-05-02T20:37:27.884Z,46.20
2018-05-02T20:39:56.097Z,46.20
2018-05-02T20:42:24.282Z,46.50
2018-05-02T20:44:51.735Z,46.30
2018-05-02T20:47:19.155Z,46.80
2018-05-02T20:49:46.605Z,47.10
2018-05-02T20:52:14.093Z,47.30
2018-05-02T20:54:42.242Z,46.90
2018-05-02T20:57:09.663Z,47.40
2018-05-02T20:59:37.867Z,48.00
2018-05-02T21:02:05.308Z,47.90
2018-05-02T21:04:33.533Z,48.60
2018-05-02T21:07:00.969Z,48.60
2018-05-02T21:09:28.402Z,48.50
2018-05-02T21:11:55.864Z,48.40
2018-05-02T21:14:23.358Z,48.60
2018-05-02T21:16:50.760Z,48.80
2018-05-02T21:19:18.971Z,48.30
2018-05-02T21:21:46.399Z,48.30
2018-05-02T21:24:14.642Z,47.80
2018-05-02T21:26:42.030Z,45.90
2018-05-02T21:29:10.240Z,47.60
2018-05-02T21:31:37.688Z,47.60
2018-05-02T21:34:05.109Z,47.60
2018-05-02T21:36:33.316Z,47.80
2018-05-02T21:39:00.748Z,47.80
2018-05-02T21:41:28.952Z,47.80
2018-05-02T21:43:56.390Z,47.80
2018-05-02T21:46:23.824Z,47.60
2018-05-02T21:48:51.259Z,48.00
2018-05-02T21:51:18.699Z,48.20
2018-05-02T21:53:46.145Z,48.20
2018-05-02T21:56:13.578Z,48.60
2018-05-02T21:58:41.772Z,48.00
2018-05-02T22:01:09.215Z,48.00
2018-05-02T22:03:36.651Z,48.30
2018-05-02T22:06:04.844Z,49.10
2018-05-02T22:08:32.276Z,48.70
2018-05-02T22:10:59.708Z,48.60
2018-05-02T22:13:27.909Z,48.70
2018-05-02T22:15:55.372Z,48.70
2018-05-02T22:18:23.575Z,48.90
2018-05-02T22:20:51.028Z,48.70
2018-05-02T22:23:18.460Z,48.90
2018-05-02T22:25:46.678Z,49.60
2018-05-02T22:28:14.966Z,49.60
2018-05-02T22:30:42.391Z,49.50
2018-05-02T22:33:09.820Z,49.90
2018-05-02T22:35:37.256Z,49.40
2018-05-02T22:38:04.696Z,49.20
2018-05-02T22:40:32.123Z,49.50
2018-05-02T22:42:59.575Z,48.60
2018-05-02T22:45:27.781Z,49.00
2018-05-02T22:47:55.204Z,49.00
2018-05-02T22:50:23.408Z,49.70
2018-05-02T22:52:50.848Z,49.70
2018-05-02T22:55:18.288Z,49.20
2018-05-02T22:57:46.490Z,49.50
2018-05-02T23:00:13.920Z,49.50
2018-05-02T23:02:42.201Z,50.00
2018-05-02T23:05:09.874Z,49.90
2018-05-02T23:07:37.313Z,49.70
2018-05-02T23:10:05.520Z,49.60
2018-05-02T23:12:32.955Z,49.00
2018-05-02T23:15:01.141Z,49.40
2018-05-02T23:17:28.589Z,49.30
2018-05-02T23:19:56.483Z,48.90
2018-05-02T23:22:24.676Z,48.90
2018-05-02T23:24:52.115Z,49.30
2018-05-02T23:27:19.546Z,49.80
2018-05-02T23:29:46.990Z,49.80
2018-05-02T23:32:15.211Z,49.90
2018-05-02T23:34:42.651Z,49.90
2018-05-02T23:37:10.966Z,50.30
2018-05-02T23:39:38.396Z,50.00
2018-05-02T23:42:05.831Z,50.40
2018-05-02T23:44:33.271Z,50.70
2018-05-02T23:47:01.485Z,50.80
2018-05-02T23:49:28.903Z,50.80
2018-05-02T23:51:57.110Z,50.80
2018-05-02T23:54:24.603Z,50.70
2018-05-02T23:56:52.032Z,50.50
2018-05-02T23:59:19.448Z,51.30
